Main page
METAR-TAF:

METAR-TAF

Airports :

Cervia, Italy

Cervia Air Base

latitude: 44-13N, longitude: 012-18E, elevation: 6 m

Current weather observation

The report was made 20 minutes ago, at 21:55 UTC
Wind 5 kt from the West
Temperature 0°C
Humidity 100%
Pressure 1026 hPa
Visibility 10 km or more
no clouds below 1500 m and no cumulonimbus

METAR: LIPC 182155Z 28005KT CAVOK 00/M00 Q1026

Time: 23:15 (22:15 UTC)

Forecast

The report was made 2 hours and 15 minutes ago, at 20:00 UTC
Forecast valid from 18 at 21 UTC to 19 at 06 UTC
Wind 5 kt from the West
Visibility 10 km or more
no clouds below 1500 m and no cumulonimbus
Temporary
from 18 at 22 UTC to 19 at 01 UTC
Visibility: 5000 m
mist

TAF: LIPC 182000Z 1821/1906 27005KT CAVOK TEMPO 1822/1901 5000 BR NSC

Weather observations and forecasts of more than 4000 airports (METAR and TAF reports).

The available stations are represented by yellow and red dots on the map.

Hover mouse over dot to see the name of the station.

Then click to see weather observations and forecasts.

To change the map : click on the green buttons with a black cross to zoom in, on the green button with a dash to zoom out, or on the green arrows for adjacent maps.


METAR-TAF: